createdAt,value
2018-07-09T00:02:26.118Z,68.21
2018-07-09T00:04:54.978Z,68.45
2018-07-09T00:07:23.900Z,68.72
2018-07-09T00:09:52.768Z,68.59
2018-07-09T00:12:22.074Z,68.95
2018-07-09T00:14:50.969Z,69.09
2018-07-09T00:17:19.602Z,69.50
2018-07-09T00:19:48.375Z,70.27
2018-07-09T00:22:17.296Z,70.86
2018-07-09T00:24:46.737Z,70.42
2018-07-09T00:27:15.827Z,70.97
2018-07-09T00:29:44.518Z,70.65
2018-07-09T00:32:13.264Z,71.17
2018-07-09T00:34:42.102Z,71.08
2018-07-09T00:37:11.186Z,70.05
2018-07-09T00:39:40.091Z,70.21
2018-07-09T00:42:09.188Z,70.01
2018-07-09T00:44:37.947Z,69.81
2018-07-09T00:47:06.938Z,69.81
2018-07-09T00:49:35.711Z,70.05
2018-07-09T00:52:04.440Z,70.08
2018-07-09T00:54:33.256Z,69.63
2018-07-09T00:57:02.145Z,69.78
2018-07-09T00:59:31.203Z,70.39
2018-07-09T01:02:00.112Z,70.77
2018-07-09T01:04:28.758Z,70.46
2018-07-09T01:06:57.607Z,71.49
2018-07-09T01:09:26.971Z,71.84
2018-07-09T01:12:11.754Z,71.25
2018-07-09T01:14:41.409Z,71.65
2018-07-09T01:17:10.231Z,71.95
2018-07-09T01:19:38.971Z,72.56
2018-07-09T01:22:07.824Z,73.12
2018-07-09T01:24:36.416Z,73.44
2018-07-09T01:27:05.383Z,73.08
2018-07-09T01:29:34.349Z,73.69
2018-07-09T01:32:03.036Z,72.29
2018-07-09T01:34:31.871Z,73.41
2018-07-09T01:37:00.535Z,72.56
2018-07-09T01:39:29.428Z,73.08
2018-07-09T01:41:58.334Z,72.65
2018-07-09T01:44:27.411Z,72.66
2018-07-09T01:46:56.136Z,73.32
2018-07-09T01:49:25.031Z,73.05
2018-07-09T01:51:54.365Z,73.05
2018-07-09T01:54:22.922Z,73.19
2018-07-09T01:56:51.674Z,73.33
2018-07-09T01:59:20.526Z,73.83
2018-07-09T02:01:49.120Z,74.35
2018-07-09T02:04:17.898Z,74.97
2018-07-09T02:06:47.035Z,74.74
2018-07-09T02:09:15.947Z,75.57
2018-07-09T02:11:44.822Z,75.57
2018-07-09T02:14:13.692Z,75.99
2018-07-09T02:16:42.605Z,76.14
2018-07-09T02:19:11.455Z,76.46
2018-07-09T02:21:40.292Z,76.80
2018-07-09T02:24:09.063Z,76.59
2018-07-09T02:26:38.149Z,76.13
2018-07-09T02:29:07.076Z,76.89
2018-07-09T02:31:35.942Z,77.32
2018-07-09T02:34:04.804Z,77.69
2018-07-09T02:36:36.440Z,78.08
2018-07-09T02:39:06.695Z,77.67
2018-07-09T02:41:35.678Z,78.02
2018-07-09T02:44:04.484Z,78.13
2018-07-09T02:46:33.385Z,78.27
2018-07-09T02:49:02.128Z,78.70
2018-07-09T02:51:31.170Z,78.98
2018-07-09T02:53:59.871Z,79.80
2018-07-09T02:56:28.735Z,79.93
2018-07-09T02:58:57.511Z,79.22
2018-07-09T03:01:26.364Z,79.91
2018-07-09T03:03:54.980Z,80.17
2018-07-09T03:06:24.041Z,80.39
2018-07-09T03:08:53.486Z,80.32
2018-07-09T03:11:22.392Z,80.53
2018-07-09T03:13:52.091Z,80.55
2018-07-09T03:16:20.804Z,81.00
2018-07-09T03:18:49.872Z,80.93
2018-07-09T03:21:18.643Z,81.01
2018-07-09T03:23:47.495Z,81.31
2018-07-09T03:26:16.144Z,81.52
2018-07-09T03:28:44.907Z,81.39
2018-07-09T03:31:13.497Z,81.45
2018-07-09T03:33:42.613Z,82.46
2018-07-09T03:36:11.708Z,82.48
2018-07-09T03:38:40.312Z,81.91
2018-07-09T03:41:08.976Z,82.41
2018-07-09T03:43:37.955Z,81.82
2018-07-09T03:46:06.758Z,81.12
2018-07-09T03:48:35.549Z,82.26
2018-07-09T03:51:04.254Z,81.82
2018-07-09T03:53:33.786Z,81.59
2018-07-09T03:56:03.023Z,81.30
2018-07-09T03:58:31.747Z,81.32
2018-07-09T04:03:56.254Z,80.43
2018-07-09T04:06:24.915Z,79.96
2018-07-09T04:08:53.613Z,80.35
2018-07-09T04:11:22.362Z,79.21
2018-07-09T04:13:51.239Z,78.87
2018-07-09T04:16:19.904Z,78.34
2018-07-09T04:18:48.326Z,78.78
2018-07-09T04:21:16.861Z,78.79
2018-07-09T04:23:45.523Z,78.12
2018-07-09T04:26:14.344Z,77.85
2018-07-09T04:28:43.484Z,77.35
2018-07-09T04:31:12.030Z,78.03
2018-07-09T04:33:40.859Z,78.32
2018-07-09T04:36:09.407Z,76.64
2018-07-09T04:38:38.910Z,76.46
2018-07-09T04:41:07.593Z,75.93
2018-07-09T04:43:36.283Z,76.24
2018-07-09T04:46:05.524Z,76.67
2018-07-09T04:48:34.321Z,75.58
2018-07-09T04:51:02.950Z,75.96
2018-07-09T04:53:31.795Z,75.66
2018-07-09T04:56:00.522Z,74.98
2018-07-09T04:58:29.178Z,75.40
2018-07-09T05:00:57.940Z,73.95
2018-07-09T05:03:28.982Z,74.43
2018-07-09T05:05:57.639Z,74.32
2018-07-09T05:08:26.374Z,74.28
2018-07-09T05:10:55.155Z,73.55
2018-07-09T05:13:24.234Z,72.86
2018-07-09T05:15:52.913Z,73.28
2018-07-09T05:18:21.567Z,74.40
2018-07-09T05:20:50.242Z,73.67
2018-07-09T05:23:19.380Z,72.95
2018-07-09T05:25:48.046Z,73.66
2018-07-09T05:28:16.680Z,73.19
2018-07-09T05:30:45.365Z,72.99
2018-07-09T05:33:14.082Z,73.35
2018-07-09T05:35:42.995Z,72.99
2018-07-09T05:38:11.513Z,72.76
2018-07-09T05:40:40.144Z,73.31
2018-07-09T05:43:09.050Z,73.62
2018-07-09T05:45:37.594Z,73.90
2018-07-09T05:48:06.635Z,72.89
2018-07-09T05:50:35.332Z,72.73
2018-07-09T05:53:04.297Z,73.32
2018-07-09T05:55:33.279Z,72.68
2018-07-09T05:58:01.924Z,73.68
2018-07-09T06:00:32.058Z,73.38
2018-07-09T06:03:00.829Z,72.28
2018-07-09T06:05:29.703Z,71.80
2018-07-09T06:07:58.576Z,72.26
2018-07-09T06:10:27.461Z,71.58
2018-07-09T06:12:56.770Z,71.50
2018-07-09T06:15:25.486Z,70.88
2018-07-09T06:17:54.265Z,70.28
2018-07-09T06:20:23.002Z,69.31
2018-07-09T06:22:51.774Z,68.76
2018-07-09T06:25:21.351Z,68.86
2018-07-09T06:27:50.067Z,68.93
2018-07-09T06:30:18.899Z,69.24
2018-07-09T06:32:47.653Z,69.32
2018-07-09T06:35:16.234Z,68.13
2018-07-09T06:37:44.814Z,68.84
2018-07-09T06:40:13.403Z,68.75
2018-07-09T06:42:42.123Z,69.08
2018-07-09T06:45:10.786Z,68.73
2018-07-09T06:47:39.332Z,67.58
2018-07-09T06:50:08.098Z,67.55
2018-07-09T06:52:36.871Z,68.21
2018-07-09T06:55:05.710Z,67.67
2018-07-09T06:57:34.748Z,68.35
2018-07-09T07:00:03.871Z,68.27
2018-07-09T07:02:32.628Z,68.68
2018-07-09T07:05:02.218Z,67.32
2018-07-09T07:07:31.324Z,67.07
2018-07-09T07:10:00.472Z,66.16
2018-07-09T07:12:29.614Z,65.63
2018-07-09T07:14:58.881Z,65.75
2018-07-09T07:17:28.121Z,65.71
2018-07-09T07:19:59.246Z,65.53
2018-07-09T07:22:28.631Z,65.16
2018-07-09T07:24:57.993Z,65.57
2018-07-09T07:27:27.073Z,64.93
2018-07-09T07:29:56.326Z,64.81
2018-07-09T07:32:25.422Z,64.79
2018-07-09T07:34:54.642Z,63.81
2018-07-09T07:37:23.974Z,63.91
2018-07-09T07:39:53.154Z,63.94
2018-07-09T07:42:22.322Z,63.95
2018-07-09T07:44:51.473Z,63.54
2018-07-09T07:47:20.749Z,63.20
2018-07-09T07:49:49.910Z,62.79
2018-07-09T07:52:20.683Z,62.15
2018-07-09T07:54:49.981Z,61.86
2018-07-09T07:57:19.259Z,62.91
2018-07-09T07:59:48.846Z,62.50
2018-07-09T08:02:18.082Z,62.98
2018-07-09T08:04:47.508Z,61.87
2018-07-09T08:07:17.395Z,62.84
2018-07-09T08:09:46.573Z,62.63
2018-07-09T08:13:00.559Z,62.89
2018-07-09T08:14:44.882Z,62.95
2018-07-09T08:17:14.765Z,61.92
2018-07-09T08:19:44.074Z,62.49
2018-07-09T08:22:13.349Z,61.19
2018-07-09T08:24:42.850Z,59.87
2018-07-09T08:27:12.218Z,61.11
2018-07-09T08:29:41.793Z,61.06
2018-07-09T08:32:11.488Z,59.39
2018-07-09T08:34:40.758Z,58.36
2018-07-09T08:37:11.088Z,57.19
2018-07-09T08:39:41.073Z,57.70
2018-07-09T08:42:10.836Z,59.49
2018-07-09T08:44:42.796Z,57.49
2018-07-09T08:47:12.697Z,58.40
2018-07-09T08:49:41.734Z,59.16
2018-07-09T08:52:11.028Z,58.95
2018-07-09T08:54:40.181Z,58.57
2018-07-09T08:57:10.051Z,56.50
2018-07-09T08:59:41.103Z,57.09
2018-07-09T09:02:10.426Z,56.65
2018-07-09T09:04:39.627Z,55.62
2018-07-09T09:07:09.760Z,56.91
2018-07-09T09:09:41.754Z,54.75
2018-07-09T09:12:13.051Z,53.24
2018-07-09T09:14:42.871Z,55.60
2018-07-09T09:17:16.555Z,53.19
2018-07-09T09:19:47.271Z,51.58
2018-07-09T09:22:19.255Z,51.34
2018-07-09T09:24:53.710Z,51.67
2018-07-09T09:27:23.581Z,50.33
2018-07-09T09:29:53.133Z,50.03
2018-07-09T09:32:23.401Z,49.41
2018-07-09T09:34:55.566Z,49.56
2018-07-09T09:37:25.654Z,45.86
2018-07-09T09:39:58.367Z,43.89
2018-07-09T09:42:28.173Z,44.49
2018-07-09T09:45:07.153Z,44.12
2018-07-09T09:47:37.812Z,44.02
2018-07-09T09:50:07.744Z,42.56
2018-07-09T09:52:37.285Z,43.78
2018-07-09T09:55:07.391Z,43.49
2018-07-09T09:57:38.297Z,42.66
2018-07-09T10:00:14.810Z,43.54
2018-07-09T10:02:45.820Z,45.04
2018-07-09T10:05:16.218Z,46.20
2018-07-09T10:07:45.615Z,46.79
2018-07-09T10:10:15.029Z,48.53
2018-07-09T10:12:45.506Z,48.56
2018-07-09T10:15:18.785Z,47.94
2018-07-09T10:17:49.282Z,48.36
2018-07-09T10:20:19.989Z,48.30
2018-07-09T10:22:50.066Z,48.07
2018-07-09T10:25:19.678Z,49.48
2018-07-09T10:27:49.147Z,49.37
2018-07-09T10:30:18.547Z,49.40
2018-07-09T10:32:48.374Z,49.90
2018-07-09T10:35:17.680Z,49.05
2018-07-09T10:37:48.090Z,49.32
2018-07-09T10:40:18.529Z,49.55
2018-07-09T10:42:49.668Z,48.30
2018-07-09T10:45:29.271Z,46.31
2018-07-09T10:48:00.241Z,45.04
2018-07-09T10:50:33.823Z,46.07
2018-07-09T10:53:08.352Z,43.90
2018-07-09T10:58:20.044Z,44.87
2018-07-09T11:00:50.761Z,44.83
2018-07-09T11:03:23.275Z,44.18
2018-07-09T11:06:01.396Z,43.47
2018-07-09T11:08:32.961Z,41.08
2018-07-09T11:11:06.991Z,44.45
2018-07-09T11:13:40.829Z,40.54
2018-07-09T11:16:14.966Z,41.20
2018-07-09T11:19:01.715Z,39.33
2018-07-09T11:21:31.268Z,37.58
2018-07-09T11:24:03.575Z,41.67
2018-07-09T11:26:34.497Z,39.28
2018-07-09T11:29:04.048Z,39.86
2018-07-09T11:31:37.003Z,38.22
2018-07-09T11:34:08.751Z,37.02
2018-07-09T11:36:40.434Z,41.45
2018-07-09T11:39:11.151Z,42.54
2018-07-09T11:41:43.652Z,42.37
2018-07-09T11:44:15.060Z,42.52
2018-07-09T11:46:48.483Z,44.29
2018-07-09T11:49:20.367Z,45.56
2018-07-09T11:51:52.837Z,45.83
2018-07-09T11:54:26.916Z,44.28
2018-07-09T11:57:02.793Z,45.42
2018-07-09T11:59:41.097Z,42.35
2018-07-09T12:02:12.549Z,43.49
2018-07-09T12:04:44.390Z,44.22
2018-07-09T12:07:17.498Z,43.37
2018-07-09T12:09:50.224Z,42.82
2018-07-09T12:12:22.243Z,44.63
2018-07-09T12:14:54.208Z,45.94
2018-07-09T12:17:33.122Z,47.36
2018-07-09T12:20:04.493Z,47.76
2018-07-09T12:22:37.614Z,48.09
2018-07-09T12:25:12.338Z,48.00
2018-07-09T12:27:45.967Z,48.23
2018-07-09T12:30:16.399Z,47.49
2018-07-09T12:32:47.889Z,49.52
2018-07-09T12:35:18.619Z,49.19
2018-07-09T12:37:48.261Z,49.54
2018-07-09T12:40:18.537Z,51.03
2018-07-09T12:42:50.222Z,50.83
2018-07-09T12:45:23.668Z,51.08
2018-07-09T12:47:56.296Z,51.57
2018-07-09T12:50:28.609Z,50.82
2018-07-09T12:52:59.607Z,51.90
2018-07-09T12:55:30.760Z,50.87
2018-07-09T12:58:04.118Z,52.24
2018-07-09T13:00:34.930Z,51.85
2018-07-09T13:03:09.014Z,50.99
2018-07-09T13:05:41.591Z,49.14
2018-07-09T13:08:16.278Z,50.59
2018-07-09T13:10:51.654Z,49.75
2018-07-09T13:13:23.556Z,48.91
2018-07-09T13:15:59.886Z,47.48
2018-07-09T13:18:41.049Z,44.33
2018-07-09T13:21:20.006Z,40.94
2018-07-09T13:23:55.653Z,39.76
2018-07-09T13:26:27.309Z,40.95
2018-07-09T13:28:58.403Z,38.61
2018-07-09T13:31:31.113Z,36.91
2018-07-09T13:34:02.932Z,36.31
2018-07-09T13:36:38.491Z,40.73
2018-07-09T13:39:10.124Z,40.20
2018-07-09T13:41:47.326Z,37.29
2018-07-09T13:44:19.842Z,42.40
2018-07-09T13:46:49.995Z,41.09
2018-07-09T13:49:22.879Z,43.87
2018-07-09T13:51:53.627Z,44.82
2018-07-09T13:54:27.194Z,43.19
2018-07-09T13:57:02.920Z,42.42
2018-07-09T13:59:35.881Z,44.63
2018-07-09T14:02:08.988Z,45.70
2018-07-09T14:04:38.938Z,46.05
2018-07-09T14:07:13.247Z,47.46
2018-07-09T14:09:47.318Z,47.46
2018-07-09T14:12:21.168Z,43.98
2018-07-09T14:14:52.607Z,44.35
2018-07-09T14:17:37.832Z,40.12
2018-07-09T14:20:36.572Z,41.39
2018-07-09T14:23:13.032Z,40.77
2018-07-09T14:25:46.783Z,39.06
2018-07-09T14:28:17.313Z,45.17
2018-07-09T14:30:48.696Z,45.90
2018-07-09T14:33:19.644Z,47.04
2018-07-09T14:35:50.803Z,43.70
2018-07-09T14:38:26.934Z,36.83
2018-07-09T14:40:59.504Z,35.80
2018-07-09T14:43:30.990Z,35.79
2018-07-09T14:46:08.119Z,38.55
2018-07-09T14:48:43.847Z,39.63
2018-07-09T14:51:14.563Z,42.54
2018-07-09T14:53:47.018Z,41.57
2018-07-09T14:56:19.347Z,42.70
2018-07-09T14:58:56.414Z,41.40
2018-07-09T15:01:27.478Z,41.09
2018-07-09T15:04:00.230Z,41.92
2018-07-09T15:06:38.152Z,43.22
2018-07-09T15:09:18.462Z,42.98
2018-07-09T15:11:50.000Z,42.89
2018-07-09T15:14:28.907Z,42.36
2018-07-09T15:17:06.854Z,42.21
2018-07-09T15:19:41.899Z,42.88
2018-07-09T15:22:15.764Z,43.75
2018-07-09T15:24:48.072Z,43.64
2018-07-09T15:27:23.467Z,43.66
2018-07-09T15:30:07.089Z,44.29
2018-07-09T15:32:43.064Z,44.18
2018-07-09T15:35:17.035Z,43.90
2018-07-09T15:37:48.373Z,44.51
2018-07-09T15:40:20.255Z,44.23
2018-07-09T15:42:51.250Z,44.56
2018-07-09T15:45:24.209Z,43.50
2018-07-09T15:48:02.824Z,42.85
2018-07-09T15:50:36.504Z,42.06
2018-07-09T15:53:10.476Z,42.94
2018-07-09T15:55:42.362Z,42.43
2018-07-09T15:58:19.576Z,43.16
2018-07-09T16:01:00.304Z,45.13
2018-07-09T16:03:34.095Z,44.96
2018-07-09T16:06:06.499Z,45.11
2018-07-09T16:08:39.408Z,45.73
2018-07-09T16:11:15.326Z,45.20
2018-07-09T16:13:53.873Z,46.07
2018-07-09T16:16:34.389Z,46.12
2018-07-09T16:19:08.069Z,46.18
2018-07-09T16:21:45.345Z,46.91
2018-07-09T16:24:16.904Z,47.17
2018-07-09T16:26:47.484Z,46.81
2018-07-09T16:29:20.443Z,46.95
2018-07-09T16:31:52.538Z,46.95
2018-07-09T16:34:30.684Z,46.42
2018-07-09T16:37:11.700Z,46.40
2018-07-09T16:39:45.789Z,46.08
2018-07-09T16:42:19.658Z,46.53
2018-07-09T16:47:37.367Z,45.96
2018-07-09T16:50:16.757Z,45.77
2018-07-09T16:52:50.514Z,46.03
2018-07-09T16:55:27.072Z,46.01
2018-07-09T16:58:00.889Z,45.54
2018-07-09T17:00:40.695Z,46.06
2018-07-09T17:03:13.080Z,45.17
2018-07-09T17:05:56.269Z,44.09
2018-07-09T17:08:31.787Z,44.51
2018-07-09T17:11:11.914Z,44.79
2018-07-09T17:13:47.123Z,43.49
2018-07-09T17:16:21.116Z,44.54
2018-07-09T17:18:55.136Z,42.70
2018-07-09T17:21:27.940Z,42.42
2018-07-09T17:24:02.030Z,43.35
2018-07-09T17:26:40.971Z,42.96
2018-07-09T17:29:19.421Z,43.60
2018-07-09T17:34:33.075Z,42.80
2018-07-09T17:37:12.648Z,43.10
2018-07-09T17:39:44.953Z,42.69
2018-07-09T17:42:17.261Z,43.89
2018-07-09T17:44:50.351Z,44.03
2018-07-09T17:47:33.922Z,45.31
2018-07-09T17:50:09.126Z,46.56
2018-07-09T17:52:43.650Z,47.29
2018-07-09T17:55:19.725Z,47.64
2018-07-09T17:57:53.709Z,48.19
2018-07-09T18:00:35.545Z,47.37
2018-07-09T18:03:10.547Z,47.36
2018-07-09T18:05:48.707Z,47.78
2018-07-09T18:08:22.293Z,47.13
2018-07-09T18:13:50.589Z,47.79
2018-07-09T18:16:26.545Z,47.68
2018-07-09T18:19:01.154Z,48.66
2018-07-09T18:21:35.271Z,49.23
2018-07-09T18:24:17.468Z,49.07
2018-07-09T18:27:06.201Z,48.98
2018-07-09T18:29:54.680Z,49.43
2018-07-09T18:32:34.064Z,49.65
2018-07-09T18:35:08.630Z,50.53
2018-07-09T18:37:45.490Z,50.16
2018-07-09T18:40:19.046Z,50.04
2018-07-09T18:42:59.050Z,51.09
2018-07-09T18:45:44.808Z,51.12
2018-07-09T18:48:19.322Z,52.54
2018-07-09T18:50:56.393Z,52.59
2018-07-09T18:53:40.984Z,51.88
2018-07-09T18:56:12.937Z,54.21
2018-07-09T18:58:51.330Z,55.25
2018-07-09T19:01:25.114Z,54.84
2018-07-09T19:04:00.239Z,58.01
2018-07-09T19:07:00.701Z,56.43
2018-07-09T19:09:41.521Z,53.81
2018-07-09T19:14:59.738Z,53.54
2018-07-09T19:20:48.716Z,53.79
2018-07-09T19:23:24.794Z,55.06
2018-07-09T19:25:53.192Z,54.60
2018-07-09T19:28:27.362Z,54.34
2018-07-09T19:30:57.902Z,55.37
2018-07-09T19:33:31.724Z,55.91
2018-07-09T19:36:07.468Z,55.38
2018-07-09T19:38:41.298Z,54.61
2018-07-09T19:43:58.387Z,55.44
2018-07-09T19:49:04.545Z,55.81
2018-07-09T19:51:40.393Z,55.78
2018-07-09T19:54:15.672Z,55.93
2018-07-09T19:56:47.796Z,55.64
2018-07-09T19:59:17.175Z,57.45
2018-07-09T20:01:48.485Z,57.18
2018-07-09T20:04:19.695Z,56.95
2018-07-09T20:06:52.783Z,57.83
2018-07-09T20:09:27.945Z,56.19
2018-07-09T20:12:01.024Z,57.64
2018-07-09T20:14:39.149Z,57.14
2018-07-09T20:17:21.657Z,57.31
2018-07-09T20:19:59.503Z,57.64
2018-07-09T20:22:32.138Z,57.02
2018-07-09T20:25:04.872Z,56.69
2018-07-09T20:27:36.305Z,57.75
2018-07-09T20:30:07.040Z,57.69
2018-07-09T20:32:43.526Z,58.46
2018-07-09T20:35:11.976Z,58.22
2018-07-09T20:37:41.469Z,58.43
2018-07-09T20:40:12.784Z,57.56
2018-07-09T20:42:43.967Z,57.77
2018-07-09T20:45:16.078Z,58.58
2018-07-09T20:47:46.573Z,57.73
2018-07-09T20:50:19.085Z,58.38
2018-07-09T20:52:50.408Z,58.25
2018-07-09T20:55:24.284Z,57.76
2018-07-09T20:58:03.347Z,58.47
2018-07-09T21:00:33.805Z,58.37
2018-07-09T21:03:08.519Z,59.07
2018-07-09T21:05:39.116Z,57.93
2018-07-09T21:08:08.206Z,58.89
2018-07-09T21:10:42.541Z,58.92
2018-07-09T21:13:11.797Z,59.69
2018-07-09T21:15:43.468Z,57.29
2018-07-09T21:18:16.294Z,57.58
2018-07-09T21:20:45.665Z,58.18
2018-07-09T21:23:15.100Z,57.80
2018-07-09T21:25:45.957Z,57.92
2018-07-09T21:28:18.274Z,58.45
2018-07-09T21:30:46.392Z,59.32
2018-07-09T21:33:15.046Z,58.40
2018-07-09T21:35:43.407Z,59.58
2018-07-09T21:38:12.209Z,59.45
2018-07-09T21:40:42.742Z,59.67
2018-07-09T21:45:45.626Z,60.11
2018-07-09T21:48:13.337Z,59.17
2018-07-09T21:50:44.064Z,58.89
2018-07-09T21:53:12.521Z,58.83
2018-07-09T21:55:41.350Z,58.94
2018-07-09T21:58:09.823Z,59.33
2018-07-09T22:00:38.670Z,59.67
2018-07-09T22:03:09.641Z,59.94
2018-07-09T22:05:37.563Z,61.08
2018-07-09T22:08:07.151Z,60.68
2018-07-09T22:10:35.004Z,59.86
2018-07-09T22:13:03.576Z,59.99
2018-07-09T22:15:33.785Z,59.61
2018-07-09T22:18:07.478Z,59.81
2018-07-09T22:20:36.250Z,60.69
2018-07-09T22:23:04.491Z,61.00
2018-07-09T22:25:32.676Z,60.80
2018-07-09T22:28:00.443Z,60.94
2018-07-09T22:30:31.714Z,61.01
2018-07-09T22:33:02.178Z,61.50
2018-07-09T22:35:31.394Z,62.32
2018-07-09T22:38:01.646Z,61.76
2018-07-09T22:40:31.115Z,61.07
2018-07-09T22:43:03.467Z,62.52
2018-07-09T22:45:33.617Z,62.11
2018-07-09T22:48:04.578Z,62.11
2018-07-09T22:50:33.770Z,61.00
2018-07-09T22:53:03.117Z,61.34
2018-07-09T22:55:44.742Z,62.11
2018-07-09T22:58:14.744Z,61.28
2018-07-09T23:00:43.942Z,63.18
2018-07-09T23:03:16.258Z,62.43
2018-07-09T23:05:46.179Z,61.68
2018-07-09T23:08:15.334Z,61.07
2018-07-09T23:13:20.129Z,61.11
2018-07-09T23:17:02.455Z,61.36
2018-07-09T23:21:45.666Z,61.76
2018-07-09T23:24:14.092Z,61.00
2018-07-09T23:26:41.901Z,61.03
2018-07-09T23:29:09.859Z,61.20
2018-07-09T23:31:37.333Z,60.21
2018-07-09T23:34:04.775Z,60.17
2018-07-09T23:36:32.254Z,60.78
2018-07-09T23:38:59.686Z,60.31
2018-07-09T23:41:27.498Z,60.88
2018-07-09T23:43:55.035Z,60.26
2018-07-09T23:46:22.507Z,60.23
2018-07-09T23:48:49.928Z,60.59
2018-07-09T23:51:17.625Z,60.43
2018-07-09T23:53:45.255Z,60.53
2018-07-09T23:56:25.652Z,60.19
2018-07-09T23:59:30.353Z,60.68
